Time;durP1;ratioP1;P1;durP2;ratioP2;P2;SDS_P1;SDS_P2;PMS_P1;PMS_P2;Temp;Humidity;BMP_temperature;BMP_pressure;BME280_temperature;BME280_humidity;BME280_pressure;Samples;Min_cycle;Max_cycle;Signal;HPM_P1;HPM_P2
2023/12/31 00:01:17;;;;;;;;;;;;;;;9.10;100.00;98894.75;5032966;28;19921;-85
2023/12/31 00:03:42;;;;;;;;;;;;;;;9.05;100.00;98886.22;5034333;28;19979;-88
2023/12/31 00:06:08;;;;;;;;;;;;;;;9.05;100.00;98881.78;5032655;28;20020;-88
2023/12/31 00:08:33;;;;;;;;;;;;;;;9.08;100.00;98883.44;5034372;28;19975;-86
2023/12/31 00:11:00;;;;;;;;;;;;;;;9.09;100.00;98879.84;5033577;28;20284;-87
2023/12/31 00:13:25;;;;;;;;;;;;;;;9.08;100.00;98872.84;5034332;28;20385;-88
2023/12/31 00:15:50;;;;;;;;;;;;;;;9.08;100.00;98879.00;5033464;28;20008;-89
2023/12/31 00:18:16;;;;;;;;;;;;;;;9.09;100.00;98871.91;5034047;28;19967;-86
2023/12/31 00:20:41;;;;;;;;;;;;;;;9.09;100.00;98862.22;5032515;28;19921;-91
2023/12/31 00:23:06;;;;;;;;;;;;;;;9.07;100.00;98850.84;5033106;28;19921;-87
2023/12/31 00:25:31;;;;;;;;;;;;;;;9.08;100.00;98854.34;5032414;28;19944;-85
2023/12/31 00:27:59;;;;;;;;;;;;;;;9.05;100.00;98859.81;5032748;28;19968;-84
2023/12/31 00:30:27;;;;;;;;;;;;;;;9.09;100.00;98861.34;5033249;28;19921;-86
2023/12/31 00:33:02;;;;;;;;;;;;;;;;;;;;;
2023/12/31 00:35:30;;;;;;;;;;;;;;;9.04;100.00;98861.56;5032509;28;19917;-86
2023/12/31 00:37:56;;;;;;;;;;;;;;;9.09;100.00;98862.22;5030811;28;19936;-89
2023/12/31 00:40:21;;;;;;;;;;;;;;;9.07;100.00;98853.47;5033850;28;19917;-88
2023/12/31 00:42:46;;;;;;;;;;;;;;;9.07;100.00;98842.06;5029543;28;20024;-88
2023/12/31 00:45:11;;;;;;;;;;;;;;;9.06;100.00;98849.16;5032165;28;20366;-86
2023/12/31 00:47:37;;;;;;;;;;;;;;;9.07;100.00;98834.13;5033826;28;19917;-83
2023/12/31 07:41:15;;;;;;;;;;;;;;;10.53;100.00;98226.78;4952388;28;19932;-92
2023/12/31 07:43:40;;;;;;;;;;;;;;;10.36;100.00;98218.16;4965803;28;19926;-92
2023/12/31 07:46:06;;;;;;;;;;;;;;;10.44;100.00;98216.81;4965603;28;20410;-92
2023/12/31 07:48:32;;;;;;;;;;;;;;;10.67;100.00;98220.53;4966327;28;20274;-91
2023/12/31 07:50:58;;;;;;;;;;;;;;;10.64;100.00;98213.66;4966322;28;20009;-92
2023/12/31 07:53:23;;;;;;;;;;;;;;;10.49;100.00;98234.06;4965153;28;20001;-92
2023/12/31 07:55:48;;;;;;;;;;;;;;;10.71;100.00;98228.16;4966456;28;20381;-92
2023/12/31 07:58:13;;;;;;;;;;;;;;;10.78;100.00;98222.47;4966089;28;19926;-92
2023/12/31 08:00:46;;;;;;;;;;;;;;;10.81;100.00;98236.34;4965106;28;19922;-88
2023/12/31 08:03:11;;;;;;;;;;;;;;;10.83;100.00;98234.44;4966310;28;19962;-92
2023/12/31 08:05:37;;;;;;;;;;;;;;;10.37;100.00;98224.31;4965844;28;19964;-92
2023/12/31 08:08:02;;;;;;;;;;;;;;;10.52;100.00;98227.72;4964662;28;19922;-92
2023/12/31 08:10:40;;;;;;;;;;;;;;;;;;;;;
2023/12/31 08:13:07;;;;;;;;;;;;;;;10.62;100.00;98214.72;4967159;28;20320;-91
2023/12/31 08:15:32;;;;;;;;;;;;;;;10.53;100.00;98218.84;4966084;28;19921;-91
2023/12/31 08:17:57;;;;;;;;;;;;;;;10.62;100.00;98226.16;4965851;28;20329;-93
2023/12/31 08:20:22;;;;;;;;;;;;;;;10.63;100.00;98227.84;4965715;28;19924;-94
2023/12/31 08:22:52;;;;;;;;;;;;;;;10.61;100.00;98219.16;4961034;28;19966;-92
2023/12/31 08:25:17;;;;;;;;;;;;;;;10.51;100.00;98218.94;4964148;28;19926;-93
2023/12/31 08:27:42;;;;;;;;;;;;;;;10.51;100.00;98228.66;4967135;28;19918;-94
2023/12/31 08:30:08;;;;;;;;;;;;;;;10.53;100.00;98222.34;4967023;28;20005;-87
2023/12/31 08:32:33;;;;;;;;;;;;;;;10.40;100.00;98228.53;4965938;28;20373;-92
2023/12/31 08:34:58;;;;;;;;;;;;;;;10.22;100.00;98218.19;4965712;28;20286;-92
2023/12/31 08:37:24;;;;;;;;;;;;;;;10.28;100.00;98225.75;4965415;28;19918;-92
2023/12/31 08:39:49;;;;;;;;;;;;;;;10.42;100.00;98226.63;4963811;28;19980;-91
2023/12/31 08:42:14;;;;;;;;;;;;;;;10.45;100.00;98227.31;4966032;28;19929;-92
2023/12/31 08:44:39;;;;;;;;;;;;;;;10.36;100.00;98227.91;4963814;28;20353;-91
2023/12/31 08:47:05;;;;;;;;;;;;;;;10.35;100.00;98232.38;4965598;28;19918;-91
2023/12/31 08:49:31;;;;;;;;;;;;;;;10.46;100.00;98225.50;4964212;28;20365;-91
2023/12/31 08:51:56;;;;;;;;;;;;;;;10.30;100.00;98221.19;4965363;28;19925;-91
2023/12/31 08:54:39;;;;;;;;;;;;;;;10.19;100.00;98221.03;4963762;28;20286;-87
